createdAt,value
2023-02-02T00:04:17.897Z,77.71
2023-02-02T00:09:20.397Z,77.71
2023-02-02T00:14:22.278Z,78.16
2023-02-02T00:19:26.723Z,78.08
2023-02-02T00:24:28.690Z,78.29
2023-02-02T00:29:31.485Z,78.54
2023-02-02T00:34:32.858Z,79.12
2023-02-02T00:39:34.367Z,79.55
2023-02-02T00:44:54.221Z,79.62
2023-02-02T00:49:55.505Z,79.96
2023-02-02T00:54:57.023Z,79.67
2023-02-02T00:59:58.440Z,79.96
2023-02-02T01:04:59.853Z,79.49
2023-02-02T01:10:01.415Z,78.88
2023-02-02T01:15:03.951Z,79.06
2023-02-02T01:20:07.143Z,79.15
2023-02-02T01:25:08.896Z,79.10
2023-02-02T01:30:11.188Z,79.37
2023-02-02T01:35:12.607Z,79.93
2023-02-02T01:40:14.084Z,81.04
2023-02-02T01:45:29.068Z,81.91
2023-02-02T01:50:32.900Z,82.14
2023-02-02T01:55:36.895Z,82.00
2023-02-02T02:00:40.592Z,81.56
2023-02-02T02:05:51.310Z,81.67
2023-02-02T02:10:52.837Z,81.57
2023-02-02T02:16:33.487Z,81.28
2023-02-02T02:22:08.933Z,81.70
2023-02-02T02:27:28.601Z,81.51
2023-02-02T02:32:35.684Z,81.68
2023-02-02T02:37:46.514Z,81.42
2023-02-02T02:42:53.867Z,82.18
2023-02-02T02:47:55.508Z,82.17
2023-02-02T02:53:06.027Z,82.64
2023-02-02T02:58:13.928Z,83.47
2023-02-02T03:03:28.698Z,84.38
2023-02-02T03:08:39.874Z,84.65
2023-02-02T03:13:42.294Z,84.90
2023-02-02T03:18:43.680Z,85.40
2023-02-02T03:23:45.081Z,84.87
2023-02-02T03:28:46.617Z,85.71
2023-02-02T03:33:47.993Z,86.04
2023-02-02T03:38:49.348Z,86.33
2023-02-02T03:43:50.775Z,86.13
2023-02-02T03:48:52.254Z,87.22
2023-02-02T03:53:53.591Z,87.04
2023-02-02T03:58:54.926Z,86.90
2023-02-02T04:03:57.559Z,87.11
2023-02-02T04:08:58.907Z,86.74
2023-02-02T04:14:00.362Z,85.83
2023-02-02T04:19:01.731Z,85.71
2023-02-02T04:24:03.149Z,85.15
2023-02-02T04:29:04.736Z,85.22
2023-02-02T04:34:06.087Z,85.05
2023-02-02T04:39:07.513Z,84.35
2023-02-02T04:44:15.345Z,83.83
2023-02-02T04:49:16.739Z,83.83
2023-02-02T04:54:18.265Z,83.06
2023-02-02T04:59:19.907Z,83.02
2023-02-02T05:04:21.269Z,82.54
2023-02-02T05:09:22.696Z,82.93
2023-02-02T05:14:24.064Z,82.87
2023-02-02T05:19:25.431Z,82.24
2023-02-02T05:24:27.654Z,82.73
2023-02-02T05:29:30.621Z,83.17
2023-02-02T05:34:31.969Z,84.07
2023-02-02T05:39:33.770Z,84.20
2023-02-02T05:44:35.150Z,84.58
2023-02-02T05:49:36.503Z,84.45
2023-02-02T05:54:37.830Z,84.24
2023-02-02T05:59:39.422Z,84.09
2023-02-02T06:04:40.832Z,83.96
2023-02-02T06:09:42.163Z,83.96
2023-02-02T06:14:43.581Z,84.70
2023-02-02T06:19:44.994Z,84.40
2023-02-02T06:24:46.515Z,85.54
2023-02-02T06:29:48.132Z,85.60
2023-02-02T06:34:49.534Z,86.00
2023-02-02T06:39:51.023Z,86.43
2023-02-02T06:44:52.329Z,86.47
2023-02-02T06:49:53.691Z,85.89
2023-02-02T06:54:55.189Z,86.01
2023-02-02T06:59:56.932Z,85.25
2023-02-02T07:04:59.482Z,83.92
2023-02-02T07:10:00.963Z,83.84
2023-02-02T07:15:02.430Z,83.82
2023-02-02T07:20:04.144Z,82.27
2023-02-02T07:25:07.313Z,81.92
2023-02-02T07:30:09.756Z,81.80
2023-02-02T07:35:11.118Z,80.86
2023-02-02T07:40:13.224Z,81.19
2023-02-02T07:45:36.173Z,80.48
2023-02-02T07:50:37.413Z,81.19
2023-02-02T07:55:38.776Z,82.96
2023-02-02T08:00:40.901Z,82.13
2023-02-02T08:05:42.334Z,81.71
2023-02-02T08:10:51.171Z,81.83
2023-02-02T08:15:52.609Z,81.53
2023-02-02T08:20:54.196Z,81.41
2023-02-02T08:26:15.839Z,80.80
2023-02-02T08:31:26.840Z,92.48
2023-02-02T08:36:30.428Z,85.67
2023-02-02T08:41:32.532Z,78.63
2023-02-02T08:46:34.111Z,78.73
2023-02-02T08:51:35.476Z,78.99
2023-02-02T08:56:36.809Z,79.27
2023-02-02T09:01:38.221Z,78.76
2023-02-02T09:06:40.960Z,78.15
2023-02-02T09:11:43.241Z,78.04
2023-02-02T09:16:44.758Z,78.30
2023-02-02T09:21:46.464Z,78.36
2023-02-02T09:26:48.172Z,78.10
2023-02-02T09:31:49.678Z,77.39
2023-02-02T09:36:51.749Z,77.52
2023-02-02T09:42:34.759Z,76.62
2023-02-02T09:47:47.416Z,77.37
2023-02-02T09:53:18.106Z,78.45
2023-02-02T09:58:30.998Z,78.63
2023-02-02T10:03:45.408Z,78.84
2023-02-02T10:08:53.678Z,79.57
2023-02-02T10:13:59.607Z,79.77
2023-02-02T10:19:03.082Z,79.56
2023-02-02T10:24:04.775Z,79.47
2023-02-02T10:29:24.274Z,80.10
2023-02-02T10:34:33.137Z,79.44
2023-02-02T10:40:10.864Z,79.38
2023-02-02T10:45:17.801Z,78.42
2023-02-02T10:50:20.501Z,79.07
2023-02-02T10:55:32.934Z,78.48
2023-02-02T11:00:47.440Z,78.04
2023-02-02T11:06:07.810Z,77.67
2023-02-02T11:11:24.837Z,77.10
2023-02-02T11:16:41.405Z,77.43
2023-02-02T11:21:53.502Z,76.17
2023-02-02T11:26:59.673Z,76.58
2023-02-02T11:32:20.399Z,78.43
2023-02-02T11:37:22.195Z,78.90
2023-02-02T11:42:25.049Z,79.52
2023-02-02T11:47:30.553Z,80.37
2023-02-02T11:52:33.248Z,80.70
2023-02-02T11:57:34.602Z,81.35
2023-02-02T12:02:35.920Z,80.98
2023-02-02T12:07:37.565Z,80.89
2023-02-02T12:12:47.718Z,79.35
2023-02-02T12:17:56.818Z,78.87
2023-02-02T12:23:20.068Z,78.85
2023-02-02T12:28:54.239Z,77.63
2023-02-02T12:34:12.132Z,77.30
2023-02-02T12:39:20.850Z,77.70
2023-02-02T12:44:51.214Z,78.92
2023-02-02T12:50:04.826Z,78.66
2023-02-02T12:55:24.552Z,78.47
2023-02-02T13:00:42.353Z,78.19
2023-02-02T13:06:12.691Z,77.96
2023-02-02T13:11:31.458Z,78.32
2023-02-02T13:16:36.977Z,78.22
2023-02-02T13:21:41.059Z,78.45
2023-02-02T13:26:46.546Z,78.30
2023-02-02T13:31:57.168Z,77.54
2023-02-02T13:37:25.256Z,78.11
2023-02-02T13:42:38.338Z,78.54
2023-02-02T13:47:48.087Z,77.86
2023-02-02T13:53:18.223Z,77.51
2023-02-02T13:58:41.542Z,76.81
2023-02-02T14:03:51.187Z,77.06
2023-02-02T14:09:04.190Z,77.39
2023-02-02T14:14:34.894Z,77.17
2023-02-02T14:19:36.246Z,76.20
2023-02-02T14:24:37.545Z,76.45
2023-02-02T14:29:46.574Z,74.96
2023-02-02T14:34:49.348Z,75.08
2023-02-02T14:40:06.215Z,75.38
2023-02-02T14:45:10.390Z,75.35
2023-02-02T14:50:19.130Z,75.20
2023-02-02T14:55:21.907Z,76.23
2023-02-02T15:00:27.947Z,77.08
2023-02-02T15:05:29.391Z,78.40
2023-02-02T15:10:55.018Z,79.18
2023-02-02T15:16:13.983Z,79.78
2023-02-02T15:21:22.385Z,79.33
2023-02-02T15:26:30.787Z,79.04
2023-02-02T15:31:46.687Z,78.77
2023-02-02T15:36:51.766Z,78.38
2023-02-02T15:42:17.177Z,77.26
2023-02-02T15:47:23.399Z,76.21
2023-02-02T15:52:32.950Z,75.71
2023-02-02T15:57:37.453Z,76.44
2023-02-02T16:02:43.635Z,75.86
2023-02-02T16:07:50.626Z,75.52
2023-02-02T16:12:58.596Z,75.16
2023-02-02T16:18:13.358Z,75.18
2023-02-02T16:23:21.894Z,74.56
2023-02-02T16:28:23.957Z,74.40
2023-02-02T16:33:35.519Z,73.38
2023-02-02T16:38:37.626Z,73.54
2023-02-02T16:43:41.384Z,73.30
2023-02-02T16:48:56.853Z,73.23
2023-02-02T16:54:20.245Z,73.10
2023-02-02T16:59:23.243Z,72.72
2023-02-02T17:04:29.853Z,72.90
2023-02-02T17:09:41.176Z,72.55
2023-02-02T17:15:17.958Z,72.47
2023-02-02T17:20:20.053Z,72.74
2023-02-02T17:25:29.497Z,72.15
2023-02-02T17:30:31.400Z,72.38
2023-02-02T17:35:47.324Z,71.58
2023-02-02T17:40:55.910Z,71.63
2023-02-02T17:45:57.676Z,71.31
2023-02-02T17:50:59.220Z,70.88
2023-02-02T17:56:00.753Z,71.31
2023-02-02T18:01:02.585Z,70.97
2023-02-02T18:06:04.085Z,70.34
2023-02-02T18:11:05.691Z,70.99
2023-02-02T18:16:07.628Z,70.98
2023-02-02T18:21:11.095Z,71.22
2023-02-02T18:26:22.082Z,71.12
2023-02-02T18:31:24.145Z,71.09
2023-02-02T18:36:25.624Z,70.91
2023-02-02T18:41:27.361Z,71.05
2023-02-02T18:46:29.096Z,70.87
2023-02-02T18:51:31.517Z,70.67
2023-02-02T18:56:33.228Z,71.15
2023-02-02T19:01:34.667Z,70.71
2023-02-02T19:06:54.902Z,70.71
2023-02-02T19:11:56.446Z,70.53
2023-02-02T19:17:17.098Z,70.73
2023-02-02T19:22:20.986Z,70.44
2023-02-02T19:27:24.717Z,70.25
2023-02-02T19:32:30.999Z,70.86
2023-02-02T19:37:33.328Z,70.79
2023-02-02T19:42:40.397Z,70.27
2023-02-02T19:47:44.272Z,70.46
2023-02-02T19:52:47.481Z,70.29
2023-02-02T19:57:49.511Z,70.55
2023-02-02T20:03:02.376Z,71.09
2023-02-02T20:08:35.873Z,71.21
2023-02-02T20:13:48.450Z,71.60
2023-02-02T20:18:55.280Z,71.60
2023-02-02T20:23:56.829Z,71.69
2023-02-02T20:29:00.887Z,71.65
2023-02-02T20:34:17.672Z,72.15
2023-02-02T20:39:26.221Z,72.10
2023-02-02T20:44:29.613Z,72.03
2023-02-02T20:49:31.804Z,71.96
2023-02-02T20:54:34.361Z,71.76
2023-02-02T20:59:35.774Z,72.15
2023-02-02T21:04:37.129Z,72.36
2023-02-02T21:09:38.485Z,72.47
2023-02-02T21:14:40.282Z,72.66
2023-02-02T21:19:41.829Z,72.77
2023-02-02T21:24:43.204Z,72.82
2023-02-02T21:29:44.579Z,72.66
2023-02-02T21:34:45.893Z,73.39
2023-02-02T21:39:51.151Z,74.25
2023-02-02T21:45:19.979Z,74.31
2023-02-02T21:50:47.932Z,74.51
2023-02-02T21:55:52.302Z,74.89
2023-02-02T22:00:57.337Z,75.31
2023-02-02T22:06:18.519Z,75.83
2023-02-02T22:11:35.926Z,75.98
2023-02-02T22:16:41.077Z,75.66
2023-02-02T22:21:42.638Z,75.97
2023-02-02T22:26:44.017Z,76.65
2023-02-02T22:31:45.518Z,76.73
2023-02-02T22:36:46.970Z,76.78
2023-02-02T22:41:48.266Z,76.63
2023-02-02T22:46:49.559Z,77.05
2023-02-02T22:51:53.328Z,76.84
2023-02-02T22:56:55.395Z,77.08
2023-02-02T23:01:56.808Z,78.11
2023-02-02T23:06:58.248Z,77.53
2023-02-02T23:11:59.594Z,78.26
2023-02-02T23:17:00.977Z,78.14
2023-02-02T23:22:02.565Z,78.45
2023-02-02T23:27:04.164Z,78.88
2023-02-02T23:32:07.003Z,78.88
2023-02-02T23:37:08.895Z,78.57
2023-02-02T23:42:10.281Z,78.94
2023-02-02T23:47:11.765Z,78.55
2023-02-02T23:52:14.157Z,78.86
2023-02-02T23:57:15.750Z,79.14
